Time;durP1;ratioP1;P1;durP2;ratioP2;P2;SDS_P1;SDS_P2;PMS_P1;PMS_P2;Temp;Humidity;BMP_temperature;BMP_pressure;BME280_temperature;BME280_humidity;BME280_pressure;Samples;Min_cycle;Max_cycle;Signal;HPM_P1;HPM_P2
2021/01/30 00:00:19;;;;;;;9.50;7.40;;;1.80;99.90;;;;;;5025008;28;20671;-67
2021/01/30 00:03:04;;;;;;;10.50;7.60;;;1.90;99.90;;;;;;5026164;28;21021;-66
2021/01/30 00:05:49;;;;;;;11.10;7.83;;;1.90;99.90;;;;;;5015221;28;20654;-66
2021/01/30 00:08:36;;;;;;;11.70;8.47;;;1.90;99.90;;;;;;5010265;28;21493;-67
2021/01/30 00:11:21;;;;;;;10.70;8.03;;;1.90;99.90;;;;;;5011924;28;20646;-67
2021/01/30 00:14:05;;;;;;;8.87;6.67;;;1.90;99.90;;;;;;5014216;28;20731;-66
2021/01/30 00:16:50;;;;;;;10.30;7.63;;;2.00;99.90;;;;;;5023038;28;20975;-67
2021/01/30 00:19:36;;;;;;;9.60;7.20;;;1.90;99.90;;;;;;5026546;28;20614;-67
2021/01/30 00:22:25;;;;;;;9.03;7.30;;;1.90;99.90;;;;;;5024471;28;20646;-67
2021/01/30 00:25:11;;;;;;;10.33;7.40;;;2.00;99.90;;;;;;5027274;28;20638;-67
2021/01/30 00:27:56;;;;;;;8.80;6.90;;;2.00;99.90;;;;;;5031902;28;20587;-67
2021/01/30 00:30:40;;;;;;;11.10;7.40;;;2.00;99.90;;;;;;5013147;28;20936;-67
2021/01/30 00:33:25;;;;;;;9.27;7.10;;;2.00;99.90;;;;;;5012195;28;20614;-67
2021/01/30 00:36:10;;;;;;;10.17;8.10;;;2.00;99.90;;;;;;5032066;28;20631;-67
2021/01/30 00:38:54;;;;;;;9.80;7.63;;;2.00;99.90;;;;;;5029709;28;20617;-67
2021/01/30 00:41:38;;;;;;;9.93;7.67;;;2.00;99.90;;;;;;5012804;28;20653;-67
2021/01/30 00:44:23;;;;;;;11.10;7.80;;;2.10;99.90;;;;;;5024103;28;21287;-67
2021/01/30 00:47:09;;;;;;;10.87;8.83;;;2.10;99.90;;;;;;5028327;28;20594;-67
2021/01/30 00:49:53;;;;;;;10.30;8.07;;;2.10;99.90;;;;;;5019811;28;20793;-67
2021/01/30 00:52:42;;;;;;;9.97;8.43;;;2.10;99.90;;;;;;5029152;28;20634;-67
2021/01/30 00:55:26;;;;;;;10.20;7.70;;;2.10;99.90;;;;;;5011172;28;20979;-66
2021/01/30 00:58:11;;;;;;;10.20;8.10;;;2.10;99.90;;;;;;5012036;28;20607;-67
2021/01/30 01:00:55;;;;;;;9.40;7.40;;;2.20;99.90;;;;;;5027335;28;20593;-67
2021/01/30 01:03:40;;;;;;;11.77;8.20;;;2.20;99.90;;;;;;5027366;28;20658;-66
2021/01/30 01:06:26;;;;;;;9.87;7.20;;;2.20;99.90;;;;;;5031843;28;20727;-67
2021/01/30 01:09:11;;;;;;;10.33;7.53;;;2.20;99.90;;;;;;5001609;28;20628;-67
2021/01/30 01:11:56;;;;;;;10.70;7.40;;;2.20;99.90;;;;;;5028697;28;20685;-67
2021/01/30 01:14:43;;;;;;;10.20;7.57;;;2.30;99.90;;;;;;5028184;28;20996;-67
2021/01/30 01:17:27;;;;;;;9.97;7.70;;;2.30;99.90;;;;;;5028746;28;20711;-66
2021/01/30 01:20:14;;;;;;;9.50;7.80;;;2.30;99.90;;;;;;5031163;28;20594;-68
2021/01/30 01:22:59;;;;;;;10.77;7.67;;;2.30;99.90;;;;;;5027382;28;20876;-66
2021/01/30 01:25:44;;;;;;;10.40;7.80;;;2.30;99.90;;;;;;5028450;28;20717;-67
2021/01/30 01:28:28;;;;;;;9.20;7.63;;;2.30;99.90;;;;;;5015059;28;20649;-67
2021/01/30 01:31:13;;;;;;;8.43;6.50;;;2.30;99.90;;;;;;5028061;28;20658;-67
2021/01/30 01:33:58;;;;;;;12.10;8.27;;;2.30;99.90;;;;;;5024539;28;20967;-67
2021/01/30 01:36:42;;;;;;;8.80;7.73;;;2.30;99.90;;;;;;5012422;28;20697;-67
2021/01/30 01:39:28;;;;;;;9.47;6.73;;;2.40;99.90;;;;;;5019810;28;20697;-67
2021/01/30 01:42:20;;;;;;;9.17;7.20;;;2.40;99.90;;;;;;5024553;28;20670;-67
2021/01/30 01:45:05;;;;;;;8.63;7.70;;;2.40;99.90;;;;;;5023345;28;20642;-67
2021/01/30 01:47:52;;;;;;;10.53;7.50;;;2.40;99.90;;;;;;5027151;28;20617;-68
2021/01/30 01:50:42;;;;;;;9.07;6.90;;;2.50;99.90;;;;;;5027126;28;20674;-67
2021/01/30 01:53:33;;;;;;;9.33;7.43;;;2.40;99.90;;;;;;5026357;28;20649;-66
2021/01/30 01:56:24;;;;;;;9.60;7.23;;;2.50;99.90;;;;;;5020037;28;20595;-65
2021/01/30 01:59:13;;;;;;;8.97;7.17;;;2.50;99.90;;;;;;5035705;28;20586;-67
2021/01/30 02:01:58;;;;;;;9.43;7.10;;;2.50;99.90;;;;;;5027296;28;21042;-67
2021/01/30 02:05:07;;;;;;;10.60;8.00;;;2.50;99.90;;;;;;5025447;28;21278;-67
2021/01/30 02:07:53;;;;;;;9.93;7.70;;;2.50;99.90;;;;;;5026249;28;20701;-67
2021/01/30 02:10:44;;;;;;;9.33;7.17;;;2.50;99.90;;;;;;5008655;28;20654;-67
2021/01/30 02:13:35;;;;;;;10.40;7.93;;;2.50;99.90;;;;;;5023515;28;21196;-67
2021/01/30 02:16:34;;;;;;;10.37;8.23;;;2.50;99.90;;;;;;5027897;28;21210;-67
2021/01/30 02:19:57;;;;;;;9.07;7.10;;;2.50;99.90;;;;;;5028605;28;20618;-67
2021/01/30 02:23:12;;;;;;;9.90;7.00;;;2.50;99.90;;;;;;5028234;28;20890;-67
2021/01/30 02:26:22;;;;;;;11.33;8.13;;;2.50;99.90;;;;;;5023631;28;20781;-66
2021/01/30 02:29:32;;;;;;;11.00;8.40;;;2.50;99.90;;;;;;5024921;28;20654;-67
2021/01/30 02:32:38;;;;;;;9.20;7.77;;;2.50;99.90;;;;;;5012766;28;20634;-66
2021/01/30 02:35:58;;;;;;;10.50;7.97;;;2.50;99.90;;;;;;5022759;28;21307;-67
2021/01/30 02:39:41;;;;;;;9.53;7.33;;;2.50;99.90;;;;;;5012029;28;21273;-66
2021/01/30 02:42:42;;;;;;;10.00;7.90;;;2.50;99.90;;;;;;4978895;28;21771;-66
2021/01/30 02:45:28;;;;;;;12.10;8.10;;;2.60;99.90;;;;;;5023116;28;20713;-67
2021/01/30 02:48:18;;;;;;;12.70;8.67;;;2.50;99.90;;;;;;5026579;28;20653;-67
2021/01/30 02:51:08;;;;;;;10.80;8.03;;;2.60;99.90;;;;;;5028457;28;20607;-67
2021/01/30 02:54:01;;;;;;;10.50;7.80;;;2.50;99.90;;;;;;5025606;28;20668;-67
2021/01/30 02:56:48;;;;;;;11.37;7.70;;;2.60;99.90;;;;;;5022064;28;21193;-67
2021/01/30 02:59:34;;;;;;;11.27;7.87;;;2.60;99.90;;;;;;5025280;28;20598;-67
2021/01/30 03:02:24;;;;;;;13.07;8.90;;;2.60;99.90;;;;;;5027552;28;20724;-67
2021/01/30 03:05:11;;;;;;;9.60;8.60;;;2.60;99.90;;;;;;5025983;28;21015;-67
2021/01/30 03:08:02;;;;;;;10.90;8.60;;;2.60;99.90;;;;;;5023627;28;20599;-67
2021/01/30 03:10:56;;;;;;;12.70;9.13;;;2.60;99.90;;;;;;5027595;28;20629;-67
2021/01/30 03:13:48;;;;;;;12.30;9.67;;;2.70;99.90;;;;;;5024824;28;20638;-67
2021/01/30 03:16:37;;;;;;;11.90;9.10;;;2.70;99.90;;;;;;5026578;28;20614;-67
2021/01/30 03:19:26;;;;;;;13.00;9.30;;;2.70;99.90;;;;;;5026630;28;20598;-67
2021/01/30 03:22:13;;;;;;;12.93;9.57;;;2.70;99.90;;;;;;5027657;28;20692;-66
2021/01/30 03:24:58;;;;;;;12.40;9.00;;;2.60;99.90;;;;;;5024630;28;20638;-65
2021/01/30 03:27:43;;;;;;;12.40;9.20;;;2.70;99.90;;;;;;5027714;28;20626;-66
2021/01/30 03:30:30;;;;;;;10.93;9.40;;;2.60;99.90;;;;;;5024392;28;21256;-67
2021/01/30 03:33:16;;;;;;;13.97;10.07;;;2.60;99.90;;;;;;5012695;28;20634;-66
2021/01/30 03:36:01;;;;;;;15.37;10.37;;;2.60;99.90;;;;;;5026748;28;21011;-66
2021/01/30 03:38:45;;;;;;;13.27;9.87;;;2.60;99.90;;;;;;5032054;28;21173;-67
2021/01/30 03:41:32;;;;;;;14.77;9.50;;;2.70;99.90;;;;;;5032378;28;20673;-67
2021/01/30 03:44:17;;;;;;;13.67;9.63;;;2.60;99.90;;;;;;5030405;28;20641;-67
2021/01/30 03:47:01;;;;;;;11.87;9.27;;;2.60;99.90;;;;;;5030602;28;21149;-67
2021/01/30 03:49:46;;;;;;;13.40;9.80;;;2.60;99.90;;;;;;5020750;28;20654;-67
2021/01/30 03:52:30;;;;;;;11.80;9.33;;;2.60;99.90;;;;;;5022771;28;20658;-66
2021/01/30 03:55:16;;;;;;;13.47;9.50;;;2.60;99.90;;;;;;5000212;28;20711;-67
2021/01/30 03:58:01;;;;;;;12.77;9.50;;;2.60;99.90;;;;;;5030414;28;20656;-67
2021/01/30 04:00:45;;;;;;;12.77;9.50;;;2.60;99.90;;;;;;5029013;28;20611;-67
2021/01/30 04:03:30;;;;;;;12.40;9.80;;;2.60;99.90;;;;;;5015703;28;20800;-67
2021/01/30 04:06:16;;;;;;;12.03;9.17;;;2.60;99.90;;;;;;5009351;28;21485;-66
2021/01/30 04:09:04;;;;;;;12.17;9.33;;;2.60;99.90;;;;;;5014944;28;20748;-67
2021/01/30 04:11:50;;;;;;;11.83;9.40;;;2.50;99.90;;;;;;5016960;28;20672;-67
2021/01/30 04:14:35;;;;;;;12.53;10.00;;;2.50;99.90;;;;;;5025187;28;20996;-67
2021/01/30 04:17:20;;;;;;;13.10;9.57;;;2.60;99.90;;;;;;5028557;28;20614;-66
2021/01/30 04:20:05;;;;;;;13.77;10.30;;;2.50;99.90;;;;;;5030971;28;21146;-67
2021/01/30 04:22:49;;;;;;;13.87;10.70;;;2.50;99.90;;;;;;5016373;28;20646;-67
2021/01/30 04:25:34;;;;;;;14.23;10.37;;;2.50;99.90;;;;;;5009723;28;21216;-67
2021/01/30 04:28:19;;;;;;;15.70;10.43;;;2.50;99.90;;;;;;5027423;28;20630;-67
2021/01/30 04:31:03;;;;;;;12.77;9.67;;;2.50;99.90;;;;;;5031875;28;20774;-67
2021/01/30 04:33:49;;;;;;;14.97;10.23;;;2.50;99.90;;;;;;5029713;28;20693;-67
2021/01/30 04:36:36;;;;;;;16.17;11.83;;;2.50;99.90;;;;;;5014352;28;20657;-67
2021/01/30 04:39:20;;;;;;;16.87;11.27;;;2.50;99.90;;;;;;5031209;28;20638;-67
2021/01/30 04:42:19;;;;;;;17.20;11.73;;;2.40;99.90;;;;;;5009146;28;20662;-67
2021/01/30 04:45:33;;;;;;;17.67;11.83;;;2.40;99.90;;;;;;5008537;28;20626;-66
2021/01/30 04:48:37;;;;;;;16.50;11.30;;;2.40;99.90;;;;;;5026115;28;20614;-66
2021/01/30 04:51:34;;;;;;;15.90;11.60;;;2.40;99.90;;;;;;5026595;28;20637;-67
2021/01/30 04:54:29;;;;;;;16.40;11.90;;;2.40;99.90;;;;;;5029533;28;20680;-67
2021/01/30 04:57:29;;;;;;;19.53;12.77;;;2.40;99.90;;;;;;5030223;28;20951;-67
2021/01/30 05:00:31;;;;;;;17.17;12.60;;;2.40;99.90;;;;;;5013322;28;20646;-66
2021/01/30 05:03:50;;;;;;;17.73;12.40;;;2.40;99.90;;;;;;5029561;28;20708;-67
2021/01/30 05:07:01;;;;;;;17.90;12.57;;;2.40;99.90;;;;;;4992442;28;20654;-67
2021/01/30 05:09:57;;;;;;;18.80;12.73;;;2.40;99.90;;;;;;5011963;28;20658;-66
2021/01/30 05:13:00;;;;;;;20.17;13.00;;;2.30;99.90;;;;;;5027789;28;20810;-67
2021/01/30 05:15:50;;;;;;;17.10;12.40;;;2.30;99.90;;;;;;5028160;28;20740;-66
2021/01/30 05:18:40;;;;;;;19.37;13.30;;;2.30;99.90;;;;;;5029293;28;20677;-67
2021/01/30 05:21:57;;;;;;;19.90;12.20;;;2.40;99.90;;;;;;5030028;28;20641;-67
2021/01/30 05:24:44;;;;;;;17.57;12.20;;;2.30;99.90;;;;;;5013853;28;20638;-67
2021/01/30 05:27:42;;;;;;;19.63;13.27;;;2.30;99.90;;;;;;5014413;28;20961;-67
2021/01/30 05:30:51;;;;;;;18.53;11.97;;;2.30;99.90;;;;;;5015148;28;20650;-67
2021/01/30 05:33:57;;;;;;;18.50;13.27;;;2.30;99.90;;;;;;5027353;28;20646;-67
2021/01/30 05:36:58;;;;;;;19.10;12.30;;;2.30;99.90;;;;;;5017932;28;20650;-67
2021/01/30 05:40:14;;;;;;;19.43;12.37;;;2.20;99.90;;;;;;5009896;28;20598;-67
2021/01/30 05:43:30;;;;;;;17.40;11.87;;;2.20;99.90;;;;;;5026997;28;20645;-67
2021/01/30 05:46:23;;;;;;;17.60;12.30;;;2.20;99.90;;;;;;5027998;28;20635;-66
2021/01/30 05:49:17;;;;;;;18.70;12.30;;;2.20;99.90;;;;;;5028500;28;20658;-67
2021/01/30 05:52:10;;;;;;;17.03;12.20;;;2.20;99.90;;;;;;5012831;28;20901;-66
2021/01/30 05:54:56;;;;;;;16.40;11.13;;;2.10;99.90;;;;;;5007655;28;21352;-66
2021/01/30 05:57:40;;;;;;;16.70;11.43;;;2.10;99.90;;;;;;5025224;28;20957;-67
2021/01/30 06:00:26;;;;;;;16.53;10.67;;;2.10;99.90;;;;;;5023285;28;20753;-66
2021/01/30 06:03:21;;;;;;;17.27;10.97;;;2.10;99.90;;;;;;5029156;28;21029;-67
2021/01/30 06:06:09;;;;;;;14.43;10.47;;;2.10;99.90;;;;;;5012406;28;20654;-67
2021/01/30 06:09:37;;;;;;;15.30;9.93;;;2.00;99.90;;;;;;5020557;28;20623;-67
2021/01/30 06:12:36;;;;;;;15.07;9.90;;;2.00;99.90;;;;;;5018314;28;20657;-66
2021/01/30 06:15:21;;;;;;;13.87;9.80;;;2.00;99.90;;;;;;5023462;28;20646;-66
2021/01/30 06:18:24;;;;;;;13.97;9.93;;;2.00;99.90;;;;;;5024623;28;20649;-66
2021/01/30 06:21:17;;;;;;;16.40;10.30;;;1.90;99.90;;;;;;5030006;28;20579;-67
2021/01/30 06:24:06;;;;;;;14.77;9.87;;;1.90;99.90;;;;;;5009631;28;20635;-67
2021/01/30 06:26:50;;;;;;;14.00;10.20;;;1.90;99.90;;;;;;5026536;28;20626;-67
2021/01/30 06:29:48;;;;;;;13.73;9.67;;;1.90;99.90;;;;;;5017679;28;20635;-67
2021/01/30 06:32:45;;;;;;;16.27;9.83;;;1.90;99.90;;;;;;5010008;28;20749;-66
2021/01/30 06:35:37;;;;;;;13.13;9.50;;;1.90;99.90;;;;;;5024141;28;20717;-66
2021/01/30 06:38:31;;;;;;;13.73;9.63;;;1.80;99.90;;;;;;5028700;28;21237;-65
2021/01/30 06:41:25;;;;;;;12.23;9.13;;;1.80;99.90;;;;;;5007868;28;20658;-65
2021/01/30 06:44:23;;;;;;;12.90;9.13;;;1.70;99.90;;;;;;5022371;28;20794;-66
2021/01/30 06:47:20;;;;;;;13.07;9.23;;;1.70;99.90;;;;;;5025156;28;20587;-65
2021/01/30 06:50:17;;;;;;;12.20;8.77;;;1.70;99.90;;;;;;5025116;28;20679;-67
2021/01/30 06:53:32;;;;;;;14.80;9.50;;;1.60;99.90;;;;;;5028043;28;21209;-66
2021/01/30 06:56:23;;;;;;;12.50;8.57;;;1.60;99.90;;;;;;5027455;28;20785;-66
2021/01/30 06:59:15;;;;;;;11.67;8.67;;;1.50;99.90;;;;;;5021262;28;20606;-66
2021/01/30 07:02:02;;;;;;;13.70;9.60;;;1.40;99.90;;;;;;5022386;28;20688;-66
2021/01/30 07:04:55;;;;;;;11.93;8.60;;;1.30;99.90;;;;;;4981614;28;20646;-67
2021/01/30 07:08:16;;;;;;;12.47;8.83;;;1.30;99.90;;;;;;5021999;28;21303;-67
2021/01/30 07:11:27;;;;;;;12.10;8.30;;;1.30;99.90;;;;;;5004852;28;21065;-67
2021/01/30 07:14:30;;;;;;;13.80;9.27;;;1.30;99.90;;;;;;5022326;28;21010;-67
2021/01/30 07:17:40;;;;;;;12.03;8.67;;;1.30;99.90;;;;;;5021432;28;20761;-67
2021/01/30 07:21:14;;;;;;;13.27;8.33;;;1.20;99.90;;;;;;5022057;28;22358;-66
2021/01/30 07:24:14;;;;;;;10.80;7.70;;;1.20;99.90;;;;;;5005151;28;20638;-66
2021/01/30 07:27:20;;;;;;;12.63;8.33;;;1.20;99.90;;;;;;5020911;28;20618;-67
2021/01/30 07:30:15;;;;;;;12.23;8.00;;;1.20;99.90;;;;;;5007910;28;20741;-66
2021/01/30 07:33:06;;;;;;;13.30;8.77;;;1.10;99.90;;;;;;5005258;28;20650;-66
2021/01/30 07:36:13;;;;;;;11.70;8.33;;;1.10;99.90;;;;;;5002830;28;20643;-66
2021/01/30 07:39:18;;;;;;;10.20;7.60;;;1.10;99.90;;;;;;5019930;28;20618;-67
2021/01/30 07:42:26;;;;;;;12.93;8.30;;;1.10;99.90;;;;;;5021804;28;20650;-67
2021/01/30 07:45:34;;;;;;;13.03;8.93;;;1.20;99.90;;;;;;4999695;28;20675;-66
2021/01/30 07:48:31;;;;;;;11.80;9.10;;;1.20;99.90;;;;;;5016391;28;20995;-66
2021/01/30 07:51:19;;;;;;;10.20;7.97;;;1.10;99.90;;;;;;5017085;28;20670;-66
2021/01/30 07:54:04;;;;;;;11.03;8.23;;;1.10;99.90;;;;;;5019447;28;20707;-66
2021/01/30 07:57:10;;;;;;;11.93;8.53;;;1.10;99.90;;;;;;5005942;28;20704;-66
2021/01/30 08:00:02;;;;;;;10.73;8.53;;;1.10;99.90;;;;;;5018275;28;20637;-67
2021/01/30 08:03:09;;;;;;;10.40;8.10;;;1.10;99.90;;;;;;5021640;28;21008;-66
2021/01/30 08:06:01;;;;;;;11.60;8.50;;;1.20;99.90;;;;;;4996221;28;20650;-69
2021/01/30 08:08:55;;;;;;;12.50;8.10;;;1.20;99.90;;;;;;5025854;28;20710;-66
2021/01/30 08:12:01;;;;;;;10.40;7.73;;;1.30;99.90;;;;;;5012823;28;20645;-66
2021/01/30 08:15:05;;;;;;;10.40;8.50;;;1.30;99.90;;;;;;5009290;28;20631;-64
2021/01/30 08:18:23;;;;;;;12.13;9.13;;;1.30;99.90;;;;;;5009369;28;20707;-66
2021/01/30 08:21:08;;;;;;;11.40;8.90;;;1.40;99.90;;;;;;5031693;28;20974;-67
2021/01/30 08:24:05;;;;;;;14.30;9.40;;;1.40;99.90;;;;;;5025398;28;20690;-65
2021/01/30 08:27:01;;;;;;;12.90;9.30;;;1.40;99.90;;;;;;5012371;28;20594;-70
2021/01/30 08:29:55;;;;;;;12.30;9.27;;;1.40;99.90;;;;;;5007797;28;20733;-70
2021/01/30 08:32:55;;;;;;;14.47;9.60;;;1.40;99.90;;;;;;5004880;28;21345;-70
2021/01/30 08:35:41;;;;;;;14.67;9.70;;;1.40;99.90;;;;;;5021165;28;21005;-69
2021/01/30 08:38:26;;;;;;;12.50;8.33;;;1.50;99.90;;;;;;5024605;28;20595;-70
2021/01/30 08:41:22;;;;;;;12.23;8.73;;;1.60;99.90;;;;;;5023364;28;20629;-66
2021/01/30 08:44:17;;;;;;;14.03;10.10;;;1.60;99.90;;;;;;5003242;28;20642;-70
2021/01/30 08:47:22;;;;;;;14.47;10.90;;;1.60;99.90;;;;;;5006826;28;21296;-66
2021/01/30 08:50:12;;;;;;;13.57;10.13;;;1.70;99.90;;;;;;5026906;28;21149;-67
2021/01/30 08:53:15;;;;;;;13.40;9.60;;;1.80;99.90;;;;;;5028797;28;20734;-66
2021/01/30 08:56:07;;;;;;;14.00;10.10;;;1.80;99.90;;;;;;5028925;28;20626;-66
2021/01/30 08:58:52;;;;;;;14.40;10.57;;;1.80;99.90;;;;;;5027709;28;21169;-66
2021/01/30 09:01:36;;;;;;;11.60;9.33;;;1.90;99.90;;;;;;5025581;28;20642;-68
2021/01/30 09:04:41;;;;;;;12.50;9.70;;;1.90;99.90;;;;;;5029462;28;20688;-66
2021/01/30 09:07:48;;;;;;;11.37;8.37;;;2.00;99.90;;;;;;5009682;28;20828;-67
2021/01/30 09:10:41;;;;;;;14.00;9.53;;;2.10;99.90;;;;;;5008246;28;20626;-65
2021/01/30 09:14:20;;;;;;;10.53;8.63;;;2.10;99.90;;;;;;5021124;28;20638;-66
2021/01/30 09:17:31;;;;;;;11.73;8.60;;;2.10;99.90;;;;;;4946482;28;20974;-66
2021/01/30 09:20:25;;;;;;;10.20;7.43;;;2.20;99.90;;;;;;5008682;28;20591;-66
2021/01/30 09:23:26;;;;;;;11.40;8.33;;;2.20;99.90;;;;;;5008384;28;20654;-66
2021/01/30 09:26:48;;;;;;;13.53;9.20;;;2.30;99.90;;;;;;5013279;28;20654;-66
2021/01/30 09:29:38;;;;;;;10.83;8.40;;;2.30;99.90;;;;;;5011569;28;20611;-67
2021/01/30 09:32:41;;;;;;;13.57;9.50;;;2.30;99.90;;;;;;5008031;28;21286;-66
2021/01/30 09:35:32;;;;;;;12.80;8.97;;;2.30;99.90;;;;;;5006220;28;21712;-66
2021/01/30 09:38:40;;;;;;;10.47;7.90;;;2.30;99.90;;;;;;5025882;28;20622;-67
2021/01/30 09:41:31;;;;;;;8.97;7.93;;;2.30;99.90;;;;;;5009852;28;20658;-67
2021/01/30 09:44:28;;;;;;;10.20;7.80;;;2.30;99.90;;;;;;5007209;28;20638;-66
2021/01/30 09:47:16;;;;;;;9.10;7.53;;;2.30;99.90;;;;;;5008573;28;21000;-66
2021/01/30 09:50:12;;;;;;;9.30;7.83;;;2.30;99.90;;;;;;5028455;28;21225;-67
2021/01/30 09:53:04;;;;;;;9.03;7.80;;;2.40;99.90;;;;;;5026059;28;20692;-66
2021/01/30 09:56:15;;;;;;;10.30;7.87;;;2.40;99.90;;;;;;5026435;28;20996;-67
2021/01/30 09:59:00;;;;;;;10.80;8.13;;;2.40;99.90;;;;;;5010480;28;20737;-67
2021/01/30 10:01:46;;;;;;;9.20;8.17;;;2.40;99.90;;;;;;5007040;28;21313;-66
2021/01/30 10:04:30;;;;;;;9.43;7.87;;;2.40;99.90;;;;;;5026528;28;20689;-67
2021/01/30 10:07:24;;;;;;;9.73;8.23;;;2.40;99.90;;;;;;5017195;28;20650;-65
2021/01/30 10:10:24;;;;;;;9.60;7.17;;;2.50;99.90;;;;;;5022199;28;20638;-66
2021/01/30 10:13:16;;;;;;;11.07;8.63;;;2.50;99.90;;;;;;5023473;28;20657;-67
2021/01/30 10:16:03;;;;;;;11.77;8.10;;;2.50;99.90;;;;;;5012005;28;21038;-66
2021/01/30 10:18:51;;;;;;;10.37;7.87;;;2.50;99.90;;;;;;5022932;28;20649;-66
2021/01/30 10:21:41;;;;;;;10.27;7.87;;;2.60;99.90;;;;;;5024537;28;20927;-67
2021/01/30 10:24:30;;;;;;;9.60;7.83;;;2.60;99.90;;;;;;5017238;28;20646;-69
2021/01/30 10:27:19;;;;;;;9.70;7.70;;;2.60;99.90;;;;;;5005613;28;20646;-66
2021/01/30 10:30:10;;;;;;;10.80;8.60;;;2.60;99.90;;;;;;5007643;28;20658;-66
2021/01/30 10:32:56;;;;;;;9.63;7.20;;;2.60;99.90;;;;;;5016246;28;20638;-66
2021/01/30 10:35:50;;;;;;;8.97;7.47;;;2.60;99.90;;;;;;5018020;28;20782;-66
2021/01/30 10:38:35;;;;;;;8.53;6.87;;;2.60;99.90;;;;;;5016980;28;20965;-67
2021/01/30 10:41:22;;;;;;;8.23;6.50;;;2.60;99.90;;;;;;5001090;28;20651;-69
2021/01/30 10:44:06;;;;;;;7.33;6.13;;;2.80;99.90;;;;;;5010449;28;20686;-68
2021/01/30 10:46:57;;;;;;;9.30;7.10;;;2.90;99.90;;;;;;5017326;28;20773;-69
2021/01/30 10:49:42;;;;;;;7.47;6.20;;;2.90;99.90;;;;;;5019751;28;21312;-69
2021/01/30 10:52:27;;;;;;;8.00;6.53;;;3.00;99.90;;;;;;5007114;28;21248;-68
2021/01/30 10:55:24;;;;;;;7.50;6.10;;;3.00;99.90;;;;;;5018893;28;21169;-68
2021/01/30 10:58:24;;;;;;;8.00;6.60;;;3.20;99.90;;;;;;5017629;28;20595;-68
2021/01/30 11:01:29;;;;;;;7.33;6.63;;;3.20;99.90;;;;;;5015930;28;20631;-68
2021/01/30 11:04:24;;;;;;;7.07;6.03;;;3.30;99.90;;;;;;5020555;28;20645;-67
2021/01/30 11:07:10;;;;;;;7.20;6.10;;;3.40;99.90;;;;;;5019615;28;20721;-69
2021/01/30 11:09:54;;;;;;;7.33;6.30;;;3.50;99.90;;;;;;5027096;28;21321;-69
2021/01/30 11:12:39;;;;;;;8.00;7.07;;;3.60;99.90;;;;;;5006020;28;20806;-71
2021/01/30 11:15:24;;;;;;;8.63;6.83;;;3.60;99.90;;;;;;5005617;28;20706;-69
2021/01/30 11:18:42;;;;;;;9.20;6.13;;;3.80;99.90;;;;;;5024589;28;20626;-69
2021/01/30 11:21:38;;;;;;;6.90;6.00;;;3.80;99.90;;;;;;5020848;28;20654;-70
2021/01/30 11:24:46;;;;;;;8.03;6.57;;;3.90;99.90;;;;;;5021261;28;21142;-69
2021/01/30 11:27:34;;;;;;;7.13;6.33;;;3.90;99.90;;;;;;5020304;28;20631;-68
2021/01/30 11:30:21;;;;;;;6.83;6.13;;;4.00;99.90;;;;;;5022654;28;20618;-68
2021/01/30 11:33:08;;;;;;;6.80;6.10;;;4.10;99.90;;;;;;5019931;28;20725;-68
2021/01/30 11:35:54;;;;;;;7.47;6.33;;;4.10;99.90;;;;;;5024065;28;20647;-68
2021/01/30 11:38:39;;;;;;;6.83;6.03;;;4.30;99.90;;;;;;5023004;28;20689;-68
2021/01/30 11:41:24;;;;;;;7.33;6.63;;;4.30;99.90;;;;;;5022492;28;20645;-69
2021/01/30 11:44:08;;;;;;;7.90;6.57;;;4.60;99.90;;;;;;5016331;28;20753;-69
2021/01/30 11:46:54;;;;;;;8.00;6.63;;;4.60;99.90;;;;;;5023039;28;20614;-68
2021/01/30 11:49:41;;;;;;;7.37;6.40;;;4.80;99.90;;;;;;5015308;28;20834;-69
2021/01/30 11:52:27;;;;;;;9.10;7.00;;;5.20;99.90;;;;;;5015361;28;20709;-69
2021/01/30 11:55:13;;;;;;;7.20;6.50;;;5.90;99.90;;;;;;5016894;28;20641;-69
2021/01/30 11:57:57;;;;;;;7.60;6.17;;;7.00;99.90;;;;;;5022154;28;20602;-68
2021/01/30 12:00:42;;;;;;;7.30;6.60;;;8.80;99.90;;;;;;5006989;28;20610;-69
2021/01/30 12:03:31;;;;;;;7.13;6.50;;;11.20;99.90;;;;;;5021815;28;20661;-70
2021/01/30 12:06:16;;;;;;;7.47;6.87;;;13.80;99.90;;;;;;5023755;28;20649;-70
2021/01/30 12:09:04;;;;;;;6.70;6.20;;;15.70;99.90;;;;;;5025324;28;20660;-71
2021/01/30 12:11:48;;;;;;;8.03;7.37;;;15.80;99.70;;;;;;5016244;28;20812;-71
2021/01/30 12:14:33;;;;;;;7.93;7.23;;;15.10;97.00;;;;;;4997229;28;20638;-68
2021/01/30 12:17:35;;;;;;;7.57;6.97;;;14.00;98.00;;;;;;5000724;28;20614;-70
2021/01/30 12:20:25;;;;;;;8.40;7.47;;;13.20;98.40;;;;;;5003671;28;20685;-70
2021/01/30 12:23:16;;;;;;;7.50;6.87;;;12.40;99.80;;;;;;5002689;28;21219;-69
2021/01/30 12:26:01;;;;;;;7.97;7.27;;;12.00;99.90;;;;;;4999080;28;20609;-69
2021/01/30 12:28:45;;;;;;;7.90;7.20;;;12.00;99.90;;;;;;4993245;28;20658;-70
2021/01/30 12:31:30;;;;;;;7.63;6.93;;;12.80;99.90;;;;;;5014629;28;20720;-70
2021/01/30 12:34:15;;;;;;;7.20;6.60;;;13.70;99.90;;;;;;5012838;28;20713;-69
2021/01/30 12:37:01;;;;;;;7.40;6.80;;;14.10;99.60;;;;;;5004326;28;20642;-69
2021/01/30 12:39:47;;;;;;;8.13;7.43;;;14.00;99.40;;;;;;5020967;28;20704;-69
2021/01/30 12:42:31;;;;;;;7.90;7.30;;;15.50;98.60;;;;;;4996915;28;21127;-70
2021/01/30 12:45:16;;;;;;;7.53;6.90;;;18.00;96.30;;;;;;5009104;28;20740;-69
2021/01/30 12:48:01;;;;;;;7.00;6.50;;;20.90;91.80;;;;;;4987724;28;20642;-70
2021/01/30 12:50:46;;;;;;;6.70;6.30;;;23.50;80.10;;;;;;5005029;28;23441;-69
2021/01/30 12:53:33;;;;;;;6.93;6.33;;;25.80;68.30;;;;;;5003345;28;20627;-71
2021/01/30 12:56:17;;;;;;;7.50;7.00;;;27.40;59.00;;;;;;5011249;28;20630;-71
2021/01/30 12:59:05;;;;;;;7.47;6.97;;;28.70;53.60;;;;;;5017826;28;20785;-73
2021/01/30 13:01:50;;;;;;;6.00;5.60;;;29.70;49.70;;;;;;5015002;28;20665;-71
2021/01/30 13:04:34;;;;;;;7.00;6.50;;;30.60;46.80;;;;;;5016515;28;20618;-72
2021/01/30 13:07:19;;;;;;;6.17;5.77;;;30.30;44.90;;;;;;4999704;28;21162;-71
2021/01/30 13:10:10;;;;;;;6.50;6.10;;;28.40;43.80;;;;;;5010519;28;20620;-75
2021/01/30 13:12:55;;;;;;;6.73;6.23;;;26.00;44.60;;;;;;5024114;28;20641;-75
2021/01/30 13:15:44;;;;;;;6.93;6.47;;;23.50;46.30;;;;;;5021665;28;20587;-67
2021/01/30 13:18:31;;;;;;;7.70;7.10;;;22.60;48.40;;;;;;5014183;28;20638;-68
2021/01/30 13:21:16;;;;;;;7.33;6.83;;;23.00;48.80;;;;;;4992017;28;20713;-68
2021/01/30 13:24:00;;;;;;;6.90;6.43;;;23.30;48.50;;;;;;5022852;28;20586;-70
2021/01/30 13:26:45;;;;;;;7.33;6.73;;;22.90;48.50;;;;;;5019843;28;21144;-67
2021/01/30 13:29:31;;;;;;;7.03;6.53;;;22.00;48.50;;;;;;5002355;28;21336;-66
2021/01/30 13:32:18;;;;;;;7.03;6.50;;;21.10;49.30;;;;;;5021107;28;20650;-66
2021/01/30 13:35:04;;;;;;;6.33;5.87;;;20.00;50.10;;;;;;5015129;28;21213;-71
2021/01/30 13:37:49;;;;;;;7.40;6.80;;;18.80;51.30;;;;;;5003770;28;20638;-67
2021/01/30 13:40:33;;;;;;;7.87;7.17;;;17.80;52.70;;;;;;5016196;28;20630;-66
2021/01/30 13:43:17;;;;;;;7.10;6.50;;;16.70;53.60;;;;;;5025484;28;21251;-70
2021/01/30 13:46:02;;;;;;;7.13;6.53;;;16.10;55.40;;;;;;5002099;28;20591;-71
2021/01/30 13:48:48;;;;;;;6.30;5.80;;;15.90;56.30;;;;;;4998940;28;20679;-70
2021/01/30 13:51:32;;;;;;;6.00;5.50;;;15.80;57.40;;;;;;5000268;28;20654;-68
2021/01/30 13:54:19;;;;;;;5.53;5.13;;;15.80;58.00;;;;;;5023808;28;21195;-69
2021/01/30 13:57:04;;;;;;;4.43;4.13;;;15.60;57.70;;;;;;5023344;28;20643;-68
2021/01/30 13:59:48;;;;;;;5.30;4.90;;;15.40;58.40;;;;;;5018716;28;20654;-67
2021/01/30 14:02:37;;;;;;;6.73;5.23;;;15.00;58.40;;;;;;5006393;28;20654;-69
2021/01/30 14:05:25;;;;;;;5.33;4.90;;;14.40;59.20;;;;;;5014311;28;21205;-69
2021/01/30 14:08:10;;;;;;;6.17;5.67;;;13.80;60.50;;;;;;5007008;28;20676;-69
2021/01/30 14:10:55;;;;;;;4.80;4.40;;;13.10;61.70;;;;;;5015007;28;21197;-71
2021/01/30 14:13:42;;;;;;;5.30;4.80;;;12.30;63.20;;;;;;5019853;28;20618;-70
2021/01/30 14:16:27;;;;;;;5.93;5.43;;;11.50;65.40;;;;;;5000982;28;20631;-70
2021/01/30 14:19:12;;;;;;;6.90;5.80;;;10.60;67.80;;;;;;5017120;28;20653;-69
2021/01/30 14:21:58;;;;;;;6.57;5.87;;;9.80;72.10;;;;;;5022037;28;20670;-69
2021/01/30 14:24:45;;;;;;;6.07;5.57;;;9.10;76.00;;;;;;5002382;28;20602;-70
2021/01/30 14:27:30;;;;;;;7.00;6.40;;;8.50;79.30;;;;;;5014135;28;20645;-70
2021/01/30 14:30:17;;;;;;;7.43;6.63;;;8.00;83.30;;;;;;5017417;28;20590;-70
2021/01/30 14:33:05;;;;;;;7.00;6.30;;;7.60;87.90;;;;;;5018605;28;20739;-68
2021/01/30 14:35:51;;;;;;;6.30;5.70;;;7.20;91.40;;;;;;5005687;28;20642;-69
2021/01/30 14:38:36;;;;;;;6.80;6.07;;;6.80;94.00;;;;;;5016532;28;20654;-70
2021/01/30 14:41:21;;;;;;;7.67;6.27;;;6.50;96.80;;;;;;5006516;28;20670;-70
2021/01/30 14:44:05;;;;;;;7.17;6.43;;;6.30;99.90;;;;;;5022078;28;20619;-69
2021/01/30 14:46:49;;;;;;;7.43;6.20;;;6.20;99.90;;;;;;5000785;28;20622;-69
2021/01/30 14:49:34;;;;;;;7.43;6.40;;;6.00;99.90;;;;;;5004860;28;21101;-69
2021/01/30 14:52:19;;;;;;;8.87;6.77;;;5.90;99.90;;;;;;5021940;28;20653;-69
2021/01/30 14:55:09;;;;;;;6.63;5.93;;;5.80;99.90;;;;;;5024633;28;20595;-69